createdAt,value
2023-04-27T00:01:12.246Z,64.60
2023-04-27T00:03:43.803Z,70.40
2023-04-27T00:06:14.850Z,86.97
2023-04-27T00:08:45.215Z,84.30
2023-04-27T00:11:15.755Z,77.35
2023-04-27T00:13:46.220Z,89.72
2023-04-27T00:16:18.353Z,81.50
2023-04-27T00:18:48.998Z,105.10
2023-04-27T00:21:20.099Z,91.57
2023-04-27T00:23:50.688Z,82.75
2023-04-27T00:26:22.574Z,71.65
2023-04-27T00:31:29.385Z,76.07
2023-04-27T00:34:00.177Z,74.63
2023-04-27T00:36:31.398Z,71.07
2023-04-27T00:39:01.629Z,68.13
2023-04-27T00:41:32.855Z,87.38
2023-04-27T00:44:03.257Z,75.20
2023-04-27T00:46:36.513Z,77.15
2023-04-27T00:49:07.006Z,75.00
2023-04-27T00:51:37.742Z,87.40
2023-04-27T00:54:08.769Z,80.82
2023-04-27T00:56:39.894Z,72.82
2023-04-27T00:59:10.206Z,67.07
2023-04-27T01:01:42.651Z,63.85
2023-04-27T01:04:13.356Z,58.42
2023-04-27T01:06:43.922Z,66.85
2023-04-27T01:09:14.573Z,57.10
2023-04-27T01:11:45.423Z,57.55
2023-04-27T01:14:15.569Z,64.75
2023-04-27T01:16:47.745Z,55.50
2023-04-27T01:19:18.459Z,57.92
2023-04-27T01:21:49.133Z,57.95
2023-04-27T01:24:21.333Z,62.88
2023-04-27T01:26:54.012Z,42.73
2023-04-27T01:29:24.256Z,57.55
2023-04-27T01:31:54.860Z,64.18
2023-04-27T01:34:26.452Z,53.25
2023-04-27T01:36:57.283Z,69.25
2023-04-27T01:39:29.052Z,71.43
2023-04-27T01:41:59.578Z,75.90
2023-04-27T01:44:29.677Z,79.10
2023-04-27T01:47:00.844Z,81.45
2023-04-27T01:49:31.285Z,78.45
2023-04-27T01:52:02.086Z,85.00
2023-04-27T01:54:33.621Z,70.68
2023-04-27T01:57:04.648Z,61.00
2023-04-27T01:59:36.534Z,62.40
2023-04-27T02:02:07.918Z,60.03
2023-04-27T02:04:40.810Z,51.13
2023-04-27T02:07:12.032Z,60.78
2023-04-27T02:09:44.097Z,63.35
2023-04-27T02:12:17.275Z,48.97
2023-04-27T02:14:48.646Z,62.75
2023-04-27T02:17:19.489Z,59.17
2023-04-27T02:19:49.610Z,50.70
2023-04-27T02:22:20.150Z,42.20
2023-04-27T02:24:52.335Z,54.05
2023-04-27T02:27:24.672Z,55.80
2023-04-27T02:29:55.922Z,48.58
2023-04-27T02:32:36.115Z,46.22
2023-04-27T02:35:07.935Z,44.15
2023-04-27T02:37:38.528Z,46.97
2023-04-27T02:40:12.134Z,51.20
2023-04-27T02:42:42.814Z,48.08
2023-04-27T02:45:15.086Z,49.33
2023-04-27T02:47:45.692Z,51.72
2023-04-27T02:50:17.344Z,50.83
2023-04-27T02:52:48.013Z,44.28
2023-04-27T02:55:21.636Z,53.80
2023-04-27T02:57:52.970Z,51.58
2023-04-27T03:00:24.580Z,46.33
2023-04-27T03:02:55.412Z,47.28
2023-04-27T03:05:29.140Z,44.28
2023-04-27T03:07:59.687Z,51.08
2023-04-27T03:10:31.409Z,54.30
2023-04-27T03:13:02.327Z,48.90
2023-04-27T03:15:36.471Z,40.60
2023-04-27T03:18:07.728Z,46.80
2023-04-27T03:20:38.368Z,47.30
2023-04-27T03:23:09.850Z,50.65
2023-04-27T03:25:41.724Z,47.20
2023-04-27T03:28:12.529Z,51.55
2023-04-27T03:30:44.170Z,53.58
2023-04-27T03:33:15.466Z,50.10
2023-04-27T03:35:45.974Z,52.05
2023-04-27T03:38:18.043Z,46.75
2023-04-27T03:40:50.506Z,48.17
2023-04-27T03:43:22.562Z,42.00
2023-04-27T03:45:53.141Z,50.85
2023-04-27T03:48:24.012Z,42.38
2023-04-27T03:50:56.770Z,48.50
2023-04-27T03:53:27.470Z,48.72
2023-04-27T03:55:59.693Z,49.67
2023-04-27T03:58:31.114Z,48.63
2023-04-27T04:01:25.017Z,40.95
2023-04-27T04:03:56.006Z,45.25
2023-04-27T04:06:28.099Z,53.38
2023-04-27T04:11:31.489Z,49.33
2023-04-27T04:14:03.582Z,51.47
2023-04-27T04:16:35.447Z,59.13
2023-04-27T04:19:09.529Z,54.03
2023-04-27T04:21:40.483Z,51.60
2023-04-27T04:24:12.208Z,49.92
2023-04-27T04:26:44.467Z,56.45
2023-04-27T04:29:15.991Z,57.97
2023-04-27T04:31:46.872Z,53.42
2023-04-27T04:34:19.729Z,49.85
2023-04-27T04:36:52.476Z,35.42
2023-04-27T04:39:24.178Z,32.05
2023-04-27T04:41:55.929Z,34.10
2023-04-27T04:44:29.657Z,41.50
2023-04-27T04:46:59.951Z,37.55
2023-04-27T04:49:30.752Z,32.47
2023-04-27T04:52:01.128Z,31.00
2023-04-27T04:54:35.295Z,30.67
2023-04-27T04:57:07.864Z,34.33
2023-04-27T04:59:41.464Z,29.02
2023-04-27T05:02:11.931Z,28.77
2023-04-27T05:04:45.932Z,33.30
2023-04-27T05:07:22.121Z,23.63
2023-04-27T05:09:58.421Z,30.52
2023-04-27T05:12:32.782Z,30.63
2023-04-27T05:15:04.797Z,24.55
2023-04-27T05:17:35.387Z,23.33
2023-04-27T05:20:10.226Z,27.40
2023-04-27T05:22:45.306Z,27.70
2023-04-27T05:25:16.723Z,25.23
2023-04-27T05:27:48.314Z,21.23
2023-04-27T05:30:33.806Z,27.95
2023-04-27T05:33:04.788Z,23.77
2023-04-27T05:35:36.656Z,26.08
2023-04-27T05:38:06.961Z,22.83
2023-04-27T05:40:37.764Z,22.63
2023-04-27T05:43:10.753Z,21.52
2023-04-27T05:45:42.179Z,30.42
2023-04-27T05:48:12.522Z,24.75
2023-04-27T05:50:43.464Z,18.55
2023-04-27T05:53:17.970Z,21.33
2023-04-27T05:55:50.887Z,19.88
2023-04-27T05:58:24.096Z,16.63
2023-04-27T06:00:57.518Z,17.67
2023-04-27T06:03:28.711Z,23.48
2023-04-27T06:06:02.394Z,23.55
2023-04-27T06:08:32.704Z,19.35
2023-04-27T06:11:03.374Z,18.45
2023-04-27T06:13:35.174Z,18.52
2023-04-27T06:16:08.276Z,17.45
2023-04-27T06:18:39.436Z,18.33
2023-04-27T06:21:10.244Z,23.33
2023-04-27T06:23:42.814Z,21.85
2023-04-27T06:26:13.751Z,19.55
2023-04-27T06:28:45.859Z,20.55
2023-04-27T06:31:16.771Z,22.05
2023-04-27T06:33:48.611Z,25.92
2023-04-27T06:36:21.181Z,22.40
2023-04-27T06:38:56.731Z,25.83
2023-04-27T06:41:28.606Z,19.42
2023-04-27T06:44:03.210Z,21.42
2023-04-27T06:46:35.179Z,22.02
2023-04-27T06:49:05.592Z,16.83
2023-04-27T06:51:40.004Z,17.20
2023-04-27T06:54:10.783Z,20.63
2023-04-27T06:56:41.732Z,19.52
2023-04-27T06:59:13.731Z,23.13
2023-04-27T07:01:47.518Z,15.77
2023-04-27T07:06:48.683Z,16.05
2023-04-27T07:09:27.455Z,16.90
2023-04-27T07:12:01.354Z,15.27
2023-04-27T07:14:33.910Z,16.00
2023-04-27T07:17:05.300Z,18.63
2023-04-27T07:19:36.079Z,15.68
2023-04-27T07:22:07.012Z,14.95
2023-04-27T07:24:37.369Z,15.35
2023-04-27T07:27:08.365Z,18.33
2023-04-27T07:29:40.131Z,15.52
2023-04-27T07:32:11.586Z,18.73
2023-04-27T07:34:52.802Z,16.80
2023-04-27T07:37:25.083Z,15.35
2023-04-27T07:39:56.040Z,16.08
2023-04-27T07:42:27.784Z,12.20
2023-04-27T07:45:00.196Z,17.52
2023-04-27T07:47:34.644Z,17.98
2023-04-27T07:52:37.376Z,15.52
2023-04-27T07:55:10.029Z,14.45
2023-04-27T07:57:41.249Z,16.98
2023-04-27T08:00:14.454Z,10.88
2023-04-27T08:02:47.498Z,14.27
2023-04-27T08:05:18.415Z,11.70
2023-04-27T08:07:50.339Z,13.27
2023-04-27T08:10:21.622Z,10.57
2023-04-27T08:12:52.227Z,9.88
2023-04-27T08:15:25.337Z,9.68
2023-04-27T08:17:58.417Z,8.63
2023-04-27T08:20:29.073Z,14.43
2023-04-27T08:23:01.037Z,16.27
2023-04-27T08:25:31.779Z,8.63
2023-04-27T08:28:03.650Z,12.82
2023-04-27T08:30:35.802Z,15.48
2023-04-27T08:33:06.731Z,11.13
2023-04-27T08:35:37.142Z,10.27
2023-04-27T08:38:09.217Z,10.52
2023-04-27T08:40:44.763Z,10.77
2023-04-27T08:43:16.003Z,10.23
2023-04-27T08:45:53.034Z,8.57
2023-04-27T08:48:23.825Z,12.68
2023-04-27T08:50:55.394Z,9.60
2023-04-27T08:53:26.795Z,7.22
2023-04-27T08:55:58.818Z,8.60
2023-04-27T08:58:38.589Z,9.10
2023-04-27T09:01:10.370Z,8.88
2023-04-27T09:03:41.366Z,9.18
2023-04-27T09:06:12.010Z,10.77
2023-04-27T09:08:47.369Z,11.43
2023-04-27T09:11:31.412Z,12.60
2023-04-27T09:14:04.279Z,9.13
2023-04-27T09:16:36.063Z,9.57
2023-04-27T09:19:06.737Z,7.47
2023-04-27T09:21:37.125Z,8.13
2023-04-27T09:24:14.937Z,8.63
2023-04-27T09:26:51.577Z,10.88
2023-04-27T09:29:22.266Z,9.18
2023-04-27T09:31:54.575Z,8.38
2023-04-27T09:34:25.248Z,6.68
2023-04-27T09:36:55.643Z,7.03
2023-04-27T09:39:26.624Z,7.07
2023-04-27T09:42:02.391Z,6.90
2023-04-27T09:44:33.968Z,4.88
2023-04-27T09:47:06.206Z,7.07
2023-04-27T09:49:37.246Z,6.82
2023-04-27T09:52:07.730Z,8.13
2023-04-27T09:54:40.181Z,6.55
2023-04-27T09:57:28.816Z,9.20
2023-04-27T10:00:16.388Z,6.53
2023-04-27T10:03:07.758Z,7.40
2023-04-27T10:06:03.492Z,6.03
2023-04-27T10:08:36.582Z,7.93
2023-04-27T10:11:16.416Z,4.95
2023-04-27T10:13:54.800Z,4.35
2023-04-27T10:16:25.804Z,5.03
2023-04-27T10:18:58.085Z,13.48
2023-04-27T10:21:30.817Z,8.23
2023-04-27T10:24:09.805Z,12.82
2023-04-27T10:26:49.138Z,8.10
2023-04-27T10:29:20.598Z,4.72
2023-04-27T10:31:51.314Z,6.95
2023-04-27T10:34:23.300Z,11.00
2023-04-27T10:37:07.851Z,6.97
2023-04-27T10:39:47.640Z,9.82
2023-04-27T10:42:29.671Z,5.85
2023-04-27T10:45:00.351Z,9.98
2023-04-27T10:47:41.152Z,6.78
2023-04-27T10:50:15.559Z,6.82
2023-04-27T10:52:47.165Z,7.97
2023-04-27T10:55:18.772Z,5.95
2023-04-27T10:57:52.014Z,7.00
2023-04-27T11:00:27.478Z,12.68
2023-04-27T11:03:10.840Z,6.50
2023-04-27T11:05:43.824Z,7.88
2023-04-27T11:08:16.830Z,9.48
2023-04-27T11:10:50.369Z,7.93
2023-04-27T11:13:24.446Z,8.80
2023-04-27T11:15:57.588Z,9.15
2023-04-27T11:21:11.329Z,7.57
2023-04-27T11:23:43.116Z,6.22
2023-04-27T11:26:14.746Z,8.15
2023-04-27T11:28:46.999Z,7.43
2023-04-27T11:31:17.513Z,7.45
2023-04-27T11:33:51.363Z,7.05
2023-04-27T11:39:00.349Z,4.57
2023-04-27T11:41:38.053Z,7.18
2023-04-27T11:44:11.473Z,7.80
2023-04-27T11:46:46.602Z,5.72
2023-04-27T11:49:17.216Z,4.90
2023-04-27T11:51:49.315Z,6.00
2023-04-27T11:54:20.015Z,4.88
2023-04-27T11:56:51.078Z,6.18
2023-04-27T11:59:23.292Z,6.50
2023-04-27T12:01:53.791Z,5.90
2023-04-27T12:04:24.660Z,6.18
2023-04-27T12:06:56.565Z,7.43
2023-04-27T12:09:27.171Z,4.53
2023-04-27T12:12:01.030Z,12.05
2023-04-27T12:14:32.168Z,8.40
2023-04-27T12:17:02.615Z,10.23
2023-04-27T12:19:37.153Z,6.35
2023-04-27T12:22:16.998Z,5.47
2023-04-27T12:24:53.180Z,5.78
2023-04-27T12:27:27.030Z,4.35
2023-04-27T12:29:59.615Z,3.90
2023-04-27T12:32:29.940Z,7.28
2023-04-27T12:35:00.775Z,7.75
2023-04-27T12:37:32.497Z,8.40
2023-04-27T12:40:05.952Z,4.32
2023-04-27T12:42:36.405Z,5.25
2023-04-27T12:45:08.744Z,7.15
2023-04-27T12:47:58.355Z,7.35
2023-04-27T12:50:31.830Z,10.05
2023-04-27T12:53:04.415Z,6.22
2023-04-27T12:55:35.113Z,4.85
2023-04-27T12:58:06.550Z,7.22
2023-04-27T13:00:37.333Z,6.45
2023-04-27T13:03:08.333Z,5.05
2023-04-27T13:05:39.166Z,6.10
2023-04-27T13:08:11.393Z,5.60
2023-04-27T13:10:42.607Z,3.67
2023-04-27T13:13:13.233Z,6.75
2023-04-27T13:15:43.658Z,7.18
2023-04-27T13:18:14.568Z,10.65
2023-04-27T13:20:45.339Z,9.38
2023-04-27T13:23:17.900Z,6.68
2023-04-27T13:25:48.559Z,8.73
2023-04-27T13:28:20.164Z,6.30
2023-04-27T13:30:52.525Z,6.97
2023-04-27T13:33:23.946Z,5.13
2023-04-27T13:35:54.450Z,5.68
2023-04-27T13:38:26.671Z,6.50
2023-04-27T13:40:57.170Z,8.93
2023-04-27T13:43:28.167Z,7.47
2023-04-27T13:46:01.099Z,5.55
2023-04-27T13:51:02.539Z,6.85
2023-04-27T13:53:34.736Z,8.48
2023-04-27T13:56:06.401Z,6.25
2023-04-27T13:58:37.224Z,8.15
2023-04-27T14:01:08.729Z,8.25
2023-04-27T14:03:45.328Z,8.32
2023-04-27T14:06:16.667Z,10.02
2023-04-27T14:08:48.729Z,9.65
2023-04-27T14:11:20.034Z,7.45
2023-04-27T14:13:51.257Z,8.65
2023-04-27T14:16:22.052Z,11.75
2023-04-27T14:18:52.844Z,7.72
2023-04-27T14:21:23.734Z,5.55
2023-04-27T14:23:55.892Z,6.35
2023-04-27T14:26:26.484Z,10.27
2023-04-27T14:28:58.685Z,7.13
2023-04-27T14:31:29.684Z,6.13
2023-04-27T14:34:00.490Z,8.95
2023-04-27T14:36:32.118Z,6.15
2023-04-27T14:39:04.680Z,5.75
2023-04-27T14:41:38.765Z,7.45
2023-04-27T14:44:09.972Z,7.05
2023-04-27T14:46:40.887Z,8.63
2023-04-27T14:49:14.105Z,7.85
2023-04-27T14:51:44.630Z,9.93
2023-04-27T14:54:16.771Z,10.07
2023-04-27T14:56:47.752Z,7.85
2023-04-27T14:59:18.360Z,5.38
2023-04-27T15:01:48.751Z,6.70
2023-04-27T15:04:19.703Z,6.90
2023-04-27T15:06:50.024Z,10.13
2023-04-27T15:09:21.988Z,8.95
2023-04-27T15:11:52.428Z,7.75
2023-04-27T15:14:22.946Z,8.15
2023-04-27T15:16:53.500Z,7.13
2023-04-27T15:19:24.300Z,6.25
2023-04-27T15:21:54.680Z,8.02
2023-04-27T15:24:26.890Z,8.10
2023-04-27T15:26:57.396Z,6.75
2023-04-27T15:29:28.323Z,8.32
2023-04-27T15:31:58.551Z,4.80
2023-04-27T15:34:29.292Z,7.80
2023-04-27T15:36:59.576Z,10.18
2023-04-27T15:39:31.841Z,6.53
2023-04-27T15:42:03.345Z,7.93
2023-04-27T15:44:34.225Z,7.40
2023-04-27T15:47:05.308Z,7.75
2023-04-27T15:49:45.793Z,5.90
2023-04-27T15:52:20.212Z,8.77
2023-04-27T15:54:52.349Z,6.93
2023-04-27T15:57:22.831Z,10.18
2023-04-27T15:59:53.749Z,7.82
2023-04-27T16:02:24.406Z,8.77
2023-04-27T16:04:57.320Z,8.60
2023-04-27T16:07:27.681Z,5.22
2023-04-27T16:09:59.971Z,6.78
2023-04-27T16:12:30.846Z,6.82
2023-04-27T16:15:01.598Z,6.30
2023-04-27T16:17:36.655Z,8.15
2023-04-27T16:20:09.668Z,8.38
2023-04-27T16:22:40.326Z,5.07
2023-04-27T16:25:12.550Z,9.55
2023-04-27T16:27:43.582Z,9.05
2023-04-27T16:30:15.142Z,7.35
2023-04-27T16:32:45.549Z,8.07
2023-04-27T16:35:16.431Z,11.93
2023-04-27T16:37:46.922Z,7.10
2023-04-27T16:40:19.474Z,6.60
2023-04-27T16:42:49.682Z,12.52
2023-04-27T16:45:20.723Z,9.13
2023-04-27T16:47:51.118Z,6.38
2023-04-27T16:50:22.342Z,10.15
2023-04-27T16:52:52.686Z,8.93
2023-04-27T16:55:24.776Z,6.13
2023-04-27T16:57:55.047Z,8.05
2023-04-27T17:00:26.045Z,4.88
2023-04-27T17:02:56.742Z,7.82
2023-04-27T17:05:27.658Z,10.32
2023-04-27T17:07:58.054Z,9.45
2023-04-27T17:10:30.406Z,10.82
2023-04-27T17:13:01.004Z,9.90
2023-04-27T17:15:32.521Z,9.73
2023-04-27T17:18:08.183Z,12.02
2023-04-27T17:20:40.994Z,10.02
2023-04-27T17:23:16.103Z,8.63
2023-04-27T17:25:49.399Z,9.38
2023-04-27T17:28:24.235Z,10.30
2023-04-27T17:30:56.555Z,15.60
2023-04-27T17:33:27.001Z,13.60
2023-04-27T17:35:57.687Z,15.40
2023-04-27T17:38:28.775Z,13.07
2023-04-27T17:41:01.053Z,14.88
2023-04-27T17:43:31.529Z,16.40
2023-04-27T17:46:02.378Z,21.55
2023-04-27T17:48:32.763Z,21.45
2023-04-27T17:51:15.858Z,28.02
2023-04-27T17:53:47.061Z,24.00
2023-04-27T17:56:19.054Z,25.65
2023-04-27T17:58:49.485Z,31.17
2023-04-27T18:01:20.336Z,27.73
2023-04-27T18:03:51.247Z,26.90
2023-04-27T18:06:22.253Z,26.40
2023-04-27T18:08:52.421Z,27.30
2023-04-27T18:11:24.735Z,23.27
2023-04-27T18:13:55.929Z,23.85
2023-04-27T18:16:26.888Z,34.15
2023-04-27T18:18:57.092Z,36.10
2023-04-27T18:21:28.519Z,44.78
2023-04-27T18:23:58.937Z,82.63
2023-04-27T18:26:31.293Z,147.73
2023-04-27T18:29:01.609Z,120.53
2023-04-27T18:31:32.311Z,100.95
2023-04-27T18:34:02.673Z,119.95
2023-04-27T18:36:33.612Z,124.72
2023-04-27T18:39:03.915Z,72.25
2023-04-27T18:41:36.139Z,59.30
2023-04-27T18:44:07.134Z,56.20
2023-04-27T18:46:37.781Z,65.53
2023-04-27T18:49:08.225Z,59.13
2023-04-27T18:51:39.013Z,61.60
2023-04-27T18:54:09.311Z,88.90
2023-04-27T18:56:41.494Z,106.78
2023-04-27T18:59:12.486Z,91.53
2023-04-27T19:01:44.618Z,97.53
2023-04-27T19:04:16.430Z,89.22
2023-04-27T19:06:50.448Z,77.05
2023-04-27T19:09:21.804Z,75.10
2023-04-27T19:12:02.338Z,57.50
2023-04-27T19:14:34.105Z,56.78
2023-04-27T19:17:06.778Z,70.45
2023-04-27T19:19:39.222Z,111.05
2023-04-27T19:22:10.754Z,153.05
2023-04-27T19:24:41.712Z,159.68
2023-04-27T19:27:15.073Z,109.18
2023-04-27T19:29:53.499Z,103.72
2023-04-27T19:32:27.352Z,97.20
2023-04-27T19:34:59.994Z,76.07
2023-04-27T19:37:31.045Z,69.80
2023-04-27T19:40:01.780Z,51.38
2023-04-27T19:42:33.887Z,36.50
2023-04-27T19:45:05.151Z,36.67
2023-04-27T19:47:36.860Z,31.50
2023-04-27T19:50:08.835Z,53.80
2023-04-27T19:52:40.164Z,51.38
2023-04-27T19:55:11.901Z,46.35
2023-04-27T19:57:45.593Z,45.80
2023-04-27T20:00:20.389Z,37.00
2023-04-27T20:02:56.218Z,30.98
2023-04-27T20:05:28.534Z,39.58
2023-04-27T20:08:02.669Z,35.20
2023-04-27T20:10:35.023Z,44.50
2023-04-27T20:13:07.660Z,37.77
2023-04-27T20:15:37.825Z,41.63
2023-04-27T20:18:08.606Z,43.55
2023-04-27T20:20:39.055Z,37.40
2023-04-27T20:23:10.256Z,40.10
2023-04-27T20:25:40.896Z,38.60
2023-04-27T20:28:13.661Z,47.65
2023-04-27T20:30:44.190Z,59.00
2023-04-27T20:33:17.628Z,68.28
2023-04-27T20:35:48.627Z,55.95
2023-04-27T20:38:22.727Z,53.28
2023-04-27T20:40:55.125Z,49.88
2023-04-27T20:43:27.946Z,43.70
2023-04-27T20:46:01.139Z,48.28
2023-04-27T20:48:33.156Z,58.87
2023-04-27T20:51:04.103Z,76.15
2023-04-27T20:53:35.894Z,87.55
2023-04-27T20:56:08.262Z,93.35
2023-04-27T20:58:42.987Z,95.30
2023-04-27T21:01:13.509Z,49.97
2023-04-27T21:04:02.941Z,60.08
2023-04-27T21:06:33.397Z,47.85
2023-04-27T21:09:04.455Z,52.08
2023-04-27T21:11:39.736Z,33.47
2023-04-27T21:14:16.118Z,40.95
2023-04-27T21:16:47.625Z,47.20
2023-04-27T21:19:18.607Z,49.17
2023-04-27T21:21:49.258Z,40.85
2023-04-27T21:24:20.208Z,41.17
2023-04-27T21:26:51.561Z,41.00
2023-04-27T21:29:24.182Z,49.30
2023-04-27T21:31:55.073Z,51.85
2023-04-27T21:34:28.049Z,71.70
2023-04-27T21:36:59.059Z,82.93
2023-04-27T21:39:30.851Z,84.78
2023-04-27T21:42:01.644Z,126.97
2023-04-27T21:44:34.827Z,129.05
2023-04-27T21:47:05.274Z,94.32
2023-04-27T21:49:35.843Z,78.50
2023-04-27T21:52:06.660Z,58.67
2023-04-27T21:54:37.068Z,55.08
2023-04-27T21:57:07.500Z,67.47
2023-04-27T21:59:39.567Z,77.38
2023-04-27T22:02:09.984Z,87.20
2023-04-27T22:04:40.794Z,86.40
2023-04-27T22:07:12.154Z,71.93
2023-04-27T22:09:43.012Z,70.55
2023-04-27T22:12:13.204Z,63.08
2023-04-27T22:14:47.017Z,61.78
2023-04-27T22:19:47.440Z,34.67
2023-04-27T22:22:17.887Z,33.58
2023-04-27T22:24:48.767Z,23.77
2023-04-27T22:27:19.029Z,24.30
2023-04-27T22:29:51.131Z,42.50
2023-04-27T22:32:23.652Z,116.95
2023-04-27T22:34:54.609Z,63.03
2023-04-27T22:37:25.203Z,43.50
2023-04-27T22:39:56.674Z,51.38
2023-04-27T22:42:27.406Z,129.27
2023-04-27T22:44:59.606Z,192.25
2023-04-27T22:47:29.839Z,233.35
2023-04-27T22:50:01.468Z,234.07
2023-04-27T22:52:33.847Z,106.78
2023-04-27T22:55:04.600Z,97.63
2023-04-27T22:57:35.011Z,137.00
2023-04-27T23:00:09.111Z,135.15
2023-04-27T23:02:40.442Z,85.47
2023-04-27T23:05:12.528Z,54.72
2023-04-27T23:07:43.585Z,51.65
2023-04-27T23:10:15.293Z,45.22
2023-04-27T23:12:45.732Z,38.90
2023-04-27T23:15:17.809Z,39.28
2023-04-27T23:17:48.129Z,45.67
2023-04-27T23:20:28.110Z,50.33
2023-04-27T23:22:59.367Z,40.78
2023-04-27T23:25:30.212Z,41.75
2023-04-27T23:28:01.073Z,38.60
2023-04-27T23:30:34.372Z,38.97
2023-04-27T23:33:04.694Z,43.25
2023-04-27T23:35:35.580Z,39.88
2023-04-27T23:38:05.830Z,40.92
2023-04-27T23:40:36.539Z,46.03
2023-04-27T23:43:06.935Z,37.22
2023-04-27T23:45:40.042Z,41.42
2023-04-27T23:48:10.397Z,40.20
2023-04-27T23:50:41.247Z,47.65
2023-04-27T23:53:11.646Z,40.03
2023-04-27T23:55:42.976Z,41.20
2023-04-27T23:58:13.362Z,37.35
